Capitol Logistics 7371

Operating for MZN



KSEA
Seattle-Tacoma International Airport
Seattle, Washington
KRFD
Chicago/Rockford International Airport
Rockford, Illinois

Activity Log

Date Flight Route Aircraft Duration
08/27/2020 CPX305 MONTN1 NORMY J90 MCW B763 3h 27m
05/21/2020 CPX305 KSEA/16L MONTN1 NORMY J12 BLUIT J90 MWH J34 HLN J136 BIL J16 MCW J90 JIBOR KRFD/I07 B763 3h 41m
11/26/2019 CPX419 NORMY J12 EPH HLN DPR J16 FSD DBQ B738 3h 45m
07/01/2019 CPX419 NORMY J12 EPH HLN DPR J16 FSD DBQ B752 3h 23m
06/26/2019 CPX305 NORMY J12 EPH HLN DPR J16 FSD DBQ B763 3h 20m
01/22/2019 CPX419 NORMY J12 EPH HLN DPR J16 FSD DBQ B752 3h 08m

Route Details

Aircraft Information
Primary: Boeing 767-300BDSF
Backup: Boeing 757-200SF
Route Data
Distance: 1439nm
Duration: 4h 29m
Recm'd Route: SEA NORMY J90 MWH J90 MLS J90 MCW
Origin Wx: KSEA 141953Z 35012G15KT 10SM CLR 17/01 A3015 RMK AO2 SLP218 T01670011
Dest. Wx: KRFD 141954Z 29014KT 10SM OVC041 09/M02 A3010 RMK AO2 SLP196 T00891022
Notes: